KJQF Airport Information

Runway Information
Runway 02 Length 7403 ft width 100 ft
Elevation 640 ft Threshold 0 ft Heading 11
Runway 20 Length 7403 ft Width 100 ft
Elevation 700 ft Threshold 652 ft Heading 191
Airport Frequencies
Type A/D Name CHARLOTTE Frequency 128.32 MHZ
Type AWOS Name AWOS 3 Frequency 133.675 MHZ
Type CLD Name CLNC DEL Frequency 118.55 MHZ
Type GND Name GND Frequency 121.85 MHZ
Type TWR Name FAA CONTRA Frequency 134.65 MHZ
Type UNIC Name CTAF/UNICO Frequency 122.95 MHZ
Airport Navaids
Airport Weather Information & NOTAM
ADDS - METARS form results

(0308 UTC 19 January 2021)
Data provider http://aviationweather.gov/metar/data/
 
METAR text: KJQF 190250Z 00000KT 10SM CLR 01/M04 A3018
Conditions at: KJQF (CONCORD REG ARPT, NC, US) observed 0250 UTC 19 January 2021
Temperature: 1.0°C (34°F)
Dewpoint: -4.0°C (25°F) [RH = 69%]
Pressure (altimeter): 30.18 inches Hg (1022.1 mb)
Winds: calm
Visibility: 10 or more miles (16+ km)
Ceiling: at least 12,000 feet AGL
Clouds: sky clear below 12,000 feet AGL
Weather: no significant weather observed at this time